VRMM/MLE METAR and TAF weather

Enter ICAO airport designator
Station Type Date Time Source
VRMM METAR 2019/10/23 20:00 UTC NOAA

VRMM 232000Z 15009KT 9999 FEW018TCU BKN120 29/25 Q1009 NOSIG


Station Type Date Time Source
VRMM Decoded METAR 2019/10/23 20:00 UTC NOAA

Male, Maldives (VRMM) 04-12N 073-32E 2M
Oct 23, 2019 - 04:00 PM EDT / 2019.10.23 2000 UTC
Wind: from the SSE (150 degrees) at 10 MPH (9 KT):0
Visibility: greater than 7 mile(s):0
Sky conditions: mostly cloudy
Weather: Towering cumulus clouds observed
Temperature: 84 F (29 C)
Dew Point: 77 F (25 C)
Relative Humidity: 79%
Pressure (altimeter): 29.80 in. Hg (1009 hPa)
ob: VRMM 232000Z 15009KT 9999 FEW018TCU BKN120 29/25 Q1009 NOSIG
cycle: 20

Station Type Date Time Source
VRMM TAF 2019/10/23 18:10 UTC NOAA

TAF VRMM 231700Z 2318/2424 21012KT 9999 FEW017TCU BKN120
TEMPO 2318/2324 5000 -SHRA FEW017CB

Example: see airport list